createdAt,value
2019-05-11T00:02:22.745Z,94.98
2019-05-11T00:04:54.513Z,95.14
2019-05-11T00:07:26.355Z,95.30
2019-05-11T00:09:58.706Z,95.29
2019-05-11T00:12:34.245Z,95.19
2019-05-11T00:15:07.540Z,95.17
2019-05-11T00:17:39.278Z,95.21
2019-05-11T00:20:11.717Z,95.14
2019-05-11T00:22:43.828Z,95.13
2019-05-11T00:25:15.763Z,95.35
2019-05-11T00:27:47.437Z,95.31
2019-05-11T00:30:19.331Z,95.53
2019-05-11T00:32:53.059Z,95.93
2019-05-11T00:35:24.579Z,96.15
2019-05-11T00:37:57.192Z,96.37
2019-05-11T00:40:30.720Z,96.60
2019-05-11T00:43:02.305Z,96.78
2019-05-11T00:45:34.280Z,97.06
2019-05-11T00:48:06.162Z,97.61
2019-05-11T00:50:39.968Z,98.73
2019-05-11T00:53:11.539Z,98.93
2019-05-11T00:55:43.074Z,99.38
2019-05-11T00:58:15.257Z,98.89
2019-05-11T01:00:47.004Z,98.53
2019-05-11T01:03:19.609Z,98.21
2019-05-11T01:05:52.311Z,97.76
2019-05-11T01:08:23.880Z,97.51
2019-05-11T01:10:55.673Z,97.34
2019-05-11T01:13:27.649Z,97.14
2019-05-11T01:16:01.375Z,97.08
2019-05-11T01:18:33.136Z,97.17
2019-05-11T01:21:04.961Z,97.13
2019-05-11T01:23:41.220Z,97.27
2019-05-11T01:26:13.323Z,97.34
2019-05-11T01:28:44.829Z,97.32
2019-05-11T01:31:16.655Z,97.38
2019-05-11T01:33:48.651Z,97.41
2019-05-11T01:36:21.774Z,97.38
2019-05-11T01:38:53.807Z,97.23
2019-05-11T01:41:25.582Z,97.13
2019-05-11T01:43:57.507Z,97.08
2019-05-11T01:46:29.156Z,96.91
2019-05-11T01:49:02.511Z,96.80
2019-05-11T01:51:34.527Z,96.83
2019-05-11T01:54:06.343Z,96.83
2019-05-11T01:56:38.252Z,96.84
2019-05-11T01:59:11.142Z,96.70
2019-05-11T02:01:42.707Z,96.62
2019-05-11T02:04:14.544Z,96.47
2019-05-11T02:06:48.036Z,96.25
2019-05-11T02:09:20.095Z,95.96
2019-05-11T02:11:52.667Z,95.88
2019-05-11T02:14:24.534Z,95.74
2019-05-11T02:16:56.730Z,95.58
2019-05-11T02:19:28.578Z,95.27
2019-05-11T02:22:00.466Z,95.37
2019-05-11T02:24:32.196Z,95.15
2019-05-11T02:27:04.836Z,95.02
2019-05-11T02:29:36.431Z,94.90
2019-05-11T02:32:08.272Z,94.59
2019-05-11T02:34:40.954Z,94.37
2019-05-11T02:37:14.281Z,94.10
2019-05-11T02:39:46.002Z,93.76
2019-05-11T02:42:17.702Z,93.53
2019-05-11T02:44:49.734Z,93.14
2019-05-11T02:47:21.852Z,92.82
2019-05-11T02:49:54.184Z,92.57
2019-05-11T02:52:26.970Z,92.43
2019-05-11T02:55:00.397Z,92.70
2019-05-11T02:57:32.491Z,92.66
2019-05-11T03:00:04.873Z,92.57
2019-05-11T03:02:36.920Z,92.70
2019-05-11T03:05:09.730Z,92.61
2019-05-11T03:07:42.218Z,92.59
2019-05-11T03:10:13.934Z,92.63
2019-05-11T03:12:46.848Z,92.77
2019-05-11T03:15:18.378Z,92.84
2019-05-11T03:17:50.072Z,92.99
2019-05-11T03:20:22.134Z,92.87
2019-05-11T03:22:54.965Z,93.36
2019-05-11T03:25:26.949Z,93.24
2019-05-11T03:28:00.322Z,93.44
2019-05-11T03:30:32.168Z,93.49
2019-05-11T03:33:03.810Z,93.38
2019-05-11T03:35:35.719Z,93.47
2019-05-11T03:38:07.358Z,93.32
2019-05-11T03:40:39.011Z,93.42
2019-05-11T03:43:11.014Z,93.20
2019-05-11T03:45:43.337Z,92.97
2019-05-11T03:48:14.951Z,93.01
2019-05-11T03:50:46.830Z,92.86
2019-05-11T03:53:18.917Z,93.20
2019-05-11T03:55:50.764Z,92.94
2019-05-11T03:58:26.313Z,92.58
2019-05-11T04:00:57.557Z,92.25
2019-05-11T04:03:29.267Z,92.16
2019-05-11T04:06:00.807Z,92.06
2019-05-11T04:08:32.301Z,91.85
2019-05-11T04:11:04.375Z,91.92
2019-05-11T04:13:36.364Z,92.12
2019-05-11T04:16:08.571Z,91.94
2019-05-11T04:18:40.669Z,91.93
2019-05-11T04:21:13.776Z,92.19
2019-05-11T04:23:47.162Z,92.03
2019-05-11T04:26:20.208Z,92.03
2019-05-11T04:28:52.924Z,92.22
2019-05-11T04:31:24.587Z,91.95
2019-05-11T04:33:56.623Z,92.11
2019-05-11T04:36:28.527Z,92.36
2019-05-11T04:39:00.264Z,92.71
2019-05-11T04:41:31.968Z,92.55
2019-05-11T04:44:03.512Z,92.28
2019-05-11T04:46:35.331Z,92.23
2019-05-11T04:49:07.065Z,92.04
2019-05-11T04:51:38.963Z,92.13
2019-05-11T04:54:10.656Z,91.75
2019-05-11T04:56:42.301Z,91.69
2019-05-11T04:59:14.192Z,91.73
2019-05-11T05:01:46.990Z,91.71
2019-05-11T05:04:19.032Z,91.69
2019-05-11T05:06:59.380Z,91.60
2019-05-11T05:09:24.447Z,92.02
2019-05-11T05:11:56.348Z,91.89
2019-05-11T05:14:27.849Z,91.42
2019-05-11T05:17:01.074Z,91.22
2019-05-11T05:19:32.898Z,90.95
2019-05-11T05:22:04.468Z,89.71
2019-05-11T05:24:36.598Z,88.71
2019-05-11T05:27:08.555Z,88.11
2019-05-11T05:29:40.575Z,87.09
2019-05-11T05:32:13.993Z,86.75
2019-05-11T05:34:45.601Z,85.30
2019-05-11T05:37:17.720Z,84.80
2019-05-11T05:39:49.349Z,83.94
2019-05-11T05:42:20.992Z,83.94
2019-05-11T05:44:52.940Z,83.02
2019-05-11T05:47:25.377Z,81.95
2019-05-11T05:49:56.893Z,82.07
2019-05-11T05:52:28.706Z,81.28
2019-05-11T05:55:00.315Z,81.80
2019-05-11T05:57:31.921Z,81.67
2019-05-11T06:00:05.079Z,80.66
2019-05-11T06:02:36.804Z,79.58
2019-05-11T06:05:08.717Z,78.40
2019-05-11T06:07:40.351Z,77.70
2019-05-11T06:10:13.331Z,77.39
2019-05-11T06:12:45.048Z,74.71
2019-05-11T06:15:17.619Z,74.74
2019-05-11T06:17:49.277Z,74.96
2019-05-11T06:20:21.144Z,75.41
2019-05-11T06:22:53.705Z,76.60
2019-05-11T06:25:25.628Z,75.91
2019-05-11T06:27:57.411Z,75.08
2019-05-11T06:30:29.427Z,73.96
2019-05-11T06:33:01.675Z,73.47
2019-05-11T06:35:34.847Z,73.65
2019-05-11T06:38:06.732Z,72.09
2019-05-11T18:03:53.246Z,38.81
2019-05-11T18:06:25.756Z,39.02
2019-05-11T18:08:58.456Z,38.84
2019-05-11T18:11:30.335Z,39.17
2019-05-11T18:14:01.949Z,39.81
2019-05-11T18:16:33.628Z,40.44
2019-05-11T18:19:08.182Z,41.00
2019-05-11T18:21:39.114Z,40.68
2019-05-11T18:24:10.661Z,40.83
2019-05-11T18:26:42.230Z,41.22
2019-05-11T18:29:13.783Z,41.46
2019-05-11T18:31:45.511Z,41.45
2019-05-11T18:34:17.857Z,41.17
2019-05-11T18:36:49.544Z,41.35
2019-05-11T18:39:21.471Z,41.59
2019-05-11T18:41:53.402Z,41.25
2019-05-11T18:44:25.206Z,41.24
2019-05-11T18:46:59.159Z,41.65
2019-05-11T18:49:30.245Z,41.80
2019-05-11T18:52:01.844Z,42.21
2019-05-11T18:54:33.575Z,42.50
2019-05-11T18:57:08.011Z,42.66
2019-05-11T18:59:39.313Z,42.79
2019-05-11T19:02:12.151Z,42.67
2019-05-11T19:04:43.992Z,42.98
2019-05-11T19:07:17.202Z,42.88
2019-05-11T19:09:49.036Z,42.96
2019-05-11T19:12:20.795Z,43.11
2019-05-11T19:20:46.340Z,43.15
2019-05-11T19:23:19.185Z,43.46
2019-05-11T19:25:51.031Z,43.51
2019-05-11T19:28:22.960Z,43.94
2019-05-11T19:30:54.801Z,44.59
2019-05-11T19:33:27.780Z,45.57
2019-05-11T19:35:59.711Z,46.21
2019-05-11T19:38:31.332Z,46.62
2019-05-11T19:41:03.832Z,47.88
2019-05-11T19:43:38.000Z,47.83
2019-05-11T19:46:09.086Z,48.01
2019-05-11T19:48:41.287Z,48.30
2019-05-11T19:51:13.006Z,48.01
2019-05-11T19:53:44.705Z,48.72
2019-05-11T19:56:18.324Z,48.23
2019-05-11T19:58:50.289Z,48.70
2019-05-11T20:01:22.554Z,49.04
2019-05-11T20:03:54.378Z,48.71
2019-05-11T20:06:28.066Z,48.95
2019-05-11T20:08:59.291Z,48.51
2019-05-11T20:11:31.026Z,49.01
2019-05-11T20:14:02.991Z,49.09
2019-05-11T20:16:34.928Z,48.92
2019-05-11T20:19:08.682Z,48.55
2019-05-11T20:21:40.608Z,48.27
2019-05-11T20:24:12.472Z,48.62
2019-05-11T20:26:44.482Z,48.32
2019-05-11T20:29:16.890Z,48.27
2019-05-11T20:31:48.847Z,48.25
2019-05-11T20:34:21.943Z,48.09
2019-05-11T20:36:53.705Z,48.32
2019-05-11T20:39:25.443Z,48.57
2019-05-11T20:41:58.206Z,48.87
2019-05-11T20:44:30.569Z,48.93
2019-05-11T20:47:02.145Z,48.83
2019-05-11T20:49:34.221Z,49.09
2019-05-11T20:52:08.556Z,49.21
2019-05-11T20:54:39.243Z,49.46
2019-05-11T20:57:11.893Z,49.79
2019-05-11T20:59:43.588Z,49.75
2019-05-11T21:02:18.013Z,50.02
2019-05-11T21:04:49.277Z,50.20
2019-05-11T21:07:21.156Z,50.27
2019-05-11T21:09:52.706Z,50.83
2019-05-11T21:12:25.491Z,51.05
2019-05-11T21:14:58.360Z,51.31
2019-05-11T21:17:30.315Z,51.57
2019-05-11T21:20:02.011Z,52.08
2019-05-11T21:22:34.252Z,52.29
2019-05-11T21:25:08.824Z,52.42
2019-05-11T21:27:39.779Z,52.92
2019-05-11T21:30:11.755Z,52.89
2019-05-11T21:32:43.888Z,53.32
2019-05-11T21:35:15.601Z,53.45
2019-05-11T21:37:48.751Z,53.71
2019-05-11T21:40:21.562Z,54.05
2019-05-11T21:42:53.667Z,54.42
2019-05-11T21:45:25.129Z,54.47
2019-05-11T21:47:57.975Z,54.65
2019-05-11T21:50:30.033Z,54.60
2019-05-11T21:53:01.640Z,54.74
2019-05-11T21:55:33.459Z,54.98
2019-05-11T21:58:05.503Z,55.04
2019-05-11T22:00:38.724Z,55.02
2019-05-11T22:03:10.958Z,55.13
2019-05-11T22:05:42.412Z,55.20
2019-05-11T22:08:17.690Z,55.27
2019-05-11T22:10:49.088Z,55.52
2019-05-11T22:13:20.824Z,55.65
2019-05-11T22:15:52.685Z,56.04
2019-05-11T22:18:30.916Z,56.24
2019-05-11T22:20:58.219Z,56.17
2019-05-11T22:23:29.958Z,56.87
2019-05-11T22:26:01.712Z,57.03
2019-05-11T22:28:34.240Z,57.36
2019-05-11T22:31:07.852Z,57.84
2019-05-11T22:33:39.644Z,57.98
2019-05-11T22:36:13.175Z,58.02
2019-05-11T22:38:45.099Z,57.89
2019-05-11T22:41:18.068Z,58.08
2019-05-11T22:43:49.980Z,58.22
2019-05-11T22:46:23.034Z,58.72
2019-05-11T22:48:54.592Z,58.80
2019-05-11T22:51:28.579Z,58.86
2019-05-11T22:53:59.743Z,59.08
2019-05-11T22:56:31.386Z,59.18
2019-05-11T22:59:03.322Z,59.58
2019-05-11T23:01:37.809Z,59.87
2019-05-11T23:04:09.172Z,60.17
2019-05-11T23:06:42.690Z,60.40
2019-05-11T23:09:14.349Z,60.78
2019-05-11T23:11:48.282Z,61.12
2019-05-11T23:14:20.042Z,61.37
2019-05-11T23:16:52.967Z,61.59
2019-05-11T23:19:27.745Z,61.98
2019-05-11T23:21:58.859Z,62.12
2019-05-11T23:24:31.548Z,62.40
2019-05-11T23:27:03.071Z,62.80
2019-05-11T23:29:35.193Z,62.83
2019-05-11T23:32:08.673Z,62.91
2019-05-11T23:34:40.823Z,62.88
2019-05-11T23:37:13.356Z,63.24
2019-05-11T23:39:47.994Z,63.50
2019-05-11T23:42:19.434Z,63.44
2019-05-11T23:44:51.530Z,63.57
2019-05-11T23:47:24.714Z,64.11
2019-05-11T23:49:58.155Z,64.42
2019-05-11T23:52:29.803Z,65.04
2019-05-11T23:55:02.053Z,64.96
2019-05-11T23:57:33.986Z,65.18
